Aérodrome :
LOGIN :

S'inscrire | Disclaimer

   EN    FR    IT 

 










Légende :    VFR   VFR Marginal   IFR   IFR Intensif   IFR Très Intensif
Visi : 
Plafond : 
>= 8 km
>= 3000ft
5 à 8 km
1000 à 3000 ft
1500m à 5 km
500 à 1000 ft
800 à 1500m
200 à 500 ft
< 800m
< 200 ft
Symboles :   Orages  Brouillard  Fortes neiges  Fortes précipitations  Vent > 20 kt
SIGMETs :   Divers  Orages  Givrage  Turbulence  Onde Orograph.  Cendres Volcan.






- Altitude de l'aérodrome : 359 ft
- Code IATA : BVA


LFOB - Beauvais

DERNIER METAR :
  • 171200Z AUTO 29010KT 250V330 9999 SCT028/// BKN040/// BKN048/// ///TCU 10/04 Q1014 TEMPO 33015G25KT 4000 SHRA SCT009 BKN013 BKN020CB

METARs EXPIRÉS :
  • 171130Z AUTO 25008KT 210V290 9999 BKN026/// BKN045/// BKN068/// //////CB 09/04 Q1015 TEMPO 33015G25KT 4000 SHRA SCT009 BKN013 BKN020CB
  • 171100Z AUTO 31010KT 9999 FEW027/// SCT035/// BKN068/// //////CB 09/04 Q1015 TEMPO 33015G25KT 4000 SHRA SCT009 BKN013 BKN020CB
  • 171030Z AUTO 29018KT 9999 -RA SCT036/// BKN042/// BKN058/// ///TCU 08/02 Q1015 TEMPO 33015G25KT 4000 SHRA SCT009 BKN013 BKN020CB
  • 171000Z AUTO 29013KT 260V320 9999 FEW039/// BKN080/// BKN120/// ///TCU 10/03 Q1015 TEMPO 33015G25KT 4000 SHRA SCT009 BKN013 BKN020CB
  • 170930Z AUTO 30011KT 260V320 9999 SCT034 SCT041 BKN110 10/03 Q1015 TEMPO 33015G25KT 4000 SHRA SCT009 BKN013 BKN020CB
  • 170900Z AUTO 31010KT 280V340 9999 FEW029 BKN120 11/04 Q1015 TEMPO 33015G25KT 1500 TSRAGS SCT009 BKN013 BKN020CB
  • 170830Z AUTO 30008KT 280V340 9999 FEW022 09/03 Q1015 TEMPO 33015G25KT 1500 TSRAGS SCT009 BKN013 BKN020CB
  • 170800Z AUTO 30007KT CAVOK 08/05 Q1015 TEMPO 33015G25KT 1500 TSRAGS SCT009 BKN013 BKN020CB
  • 170730Z AUTO 30009KT CAVOK 07/04 Q1016 TEMPO 33015G25KT 1500 TSRAGS SCT009 BKN013 BKN020CB

TAF TAF LFOB
Valide du 17 à 12h jusqu'au 18 à 12h UTC


171100Z 1712/1812 31010KT 9999 BKN030
TEMPO 1712/1803 4000 SHRA SCT009 BKN013 BKN020CB
PROB30
TEMPO 1712/1713 33015G25KT 1500 TSRAGS
PROB30
TEMPO 1723/1803 1000 SHRASN
ATIS : +33 3 44 11 49 28



MET'MAP, la Météo Aéronautique d'un coup d'oeil ! - Copyright ORBIFLY Décembre 2007 - Disclaimer

ORBIFLY MET'MAP TEAM :

Programmation & Développement : Alexandra Zaïnal
Sur une idée originale de : Baudouin d'Aumeries
Soutien technique & logistique : Manuel Goepfert
Assistance : Marc-Olivier Méhu




SOURCES & CREDITS :

   NOAA